< < Back
Terminal Aerodrome Forecast


Current Version              Previous Versions:   1  2  3  4  5  6  7  8  9  

Terminal Aerodrome Forecast

540
FTUS42 KCHS 291137
TAFCHS
TAF
KCHS 291137Z 2912/3012 05007KT P6SM SCT025 BKN250
     FM291800 10009KT P6SM SCT040
     FM300100 VRB03KT P6SM SCT015=



Latest METAR

960
SAUS80 KWBC 291800 RRA
MTRCHS
METAR KCHS 291756Z 00000KT 10SM FEW045 FEW250 33/22 A2996 RMK AO2 SLP145
T03280222 10333 20256 58013


USA.gov is the U.S. government's official web portal to all federal, state and local government web resources and services.